首页
METAR-TAF:

METAR-TAF

机场 :

拉紹德封, 瑞士

纬度: 47-05-03N, 经度: 006-47-37E, 海拔: 1027米

当前天气观测

该预报发布于44分钟前的11:50 UTC
风速8节,风向,在之间变化
温度 17°C
湿度 27%
气压 1028 hPa
能见度10公里或以上
1500米以下无云,无积雨云

METAR: LSGC 071150Z 08008KT 010V180 CAVOK 17/M02 Q1028

时间: 14:34 (12:34 UTC)

预报

该预报发布于1小时和9分钟前的11:25 UTC
预报有效从07日的 12点(UTC)到 07日的 21点(UTC)
风速10节,风向
能见度10公里或以上
1500米以下无云,无积雨云

TAF: LSGC 071125Z 0712/0721 09010KT CAVOK

超过4000个机场的气象观测和天气预报(METAR&TAF报告)。

可查询的气象台以黄色和红色小点在地图上表示。

将鼠标移到小点上方,可查看气象台名称。

然后点击查看天气观测和预报。

如需切换地图:点击带黑十字的绿色按钮放大地图;点击带横线的绿色按钮缩小地图;或者点击绿色箭头查看邻近地区的地图。


METAR-TAF: